Aérodrome :







RETROUVEZ-NOUS SUR...

 
LOGIN :

S'inscrire | Disclaimer

   EN    FR    IT 

 









Légende :    VFR   VFR Marginal   IFR   IFR Intensif   IFR Très Intensif
Visi : 
Plafond : 
>= 8 km
>= 3000ft
5 à 8 km
1000 à 3000 ft
1500m à 5 km
500 à 1000 ft
800 à 1500m
200 à 500 ft
< 800m
< 200 ft
Symboles :   Orages  Brouillard  Fortes neiges  Fortes précipitations  Vent > 20 kt






- Altitude de l'aérodrome : 9 ft
- Code IATA : SJU


TJSJ - Luis Munoz Marin Int.

DERNIER METAR :
  • 030456Z 18003KT 10SM FEW031 SCT055 25/21 A3000 RMK AO2 SLP158 T02500211

METARs EXPIRÉS :
  • 030356Z 00000KT 10SM FEW031 FEW043 SCT055 25/21 A3001 RMK AO2 SLP161 T02500211 402890228
  • 030256Z 00000KT 10SM FEW031 FEW041 SCT048 26/21 A3002 RMK AO2 SLP163 T02560206 50008

TAF TJSJ
Valide du 03 à 00h jusqu'au 04 à 00h UTC


022339Z 0300/0324 07005KT P6SM VCSH FEW030 FEW045
FM031400 06012KT P6SM FEW035 SCT050
FM032200 07009KT P6SM FEW035
FIR TJZS / Amérique du Nord



MET'MAP, la Météo Aéronautique d'un coup d'oeil ! - Copyright ORBIFLY Décembre 2007 - Disclaimer

ORBIFLY MET'MAP TEAM :

Programmation & Développement : Alexandra Zaïnal
Sur une idée originale de : Baudouin d'Aumeries
Assistance à la programmation : Marc-Olivier Méhu
Soutien technique & logistique : Manuel Goepfert

Contact : metmap@orbifly.com




SOURCES & CREDITS :

   NOAA